Lamont, Wyoming
Current Conditions -  °F | °C
As of 6:15 PM on Tuesday 21 Oct 2014 (Local Time) from KFWZ Reporting Station
Clear Clear  
Wind Chill: 37°   Ceiling: Unl
Heat Index: 45°   Visibility: 10mi
Dew Point: 32°   Wind: 20mph
Humidity: 61%   Direction: 250°WSW
Pressure: 29.95"   Gusts: 29mph
Location:  42.1657°N, 107.989°W
Report Text: KFWZ 220015Z AUTO 25017G25KT 10SM CLR 07/00 A2995 RMK AO2 LTG DSNT S
Loading
Personal Weather Stations






























Interactive Weather Map
Tropical Storm Tracking
New forecast layout! Learn more

10-Day Weather Forecast

Advertisements
Track Severe Weather on mobile